sensor_id;sensor_type;location;lat;lon;timestamp;pressure;altitude;pressure_sealevel;temperature;humidity
51031;BME280;37058;41.442;23.240;2022-08-19T00:01:53;99998.50;;;24.01;62.98
51031;BME280;37058;41.442;23.240;2022-08-19T00:04:25;99997.59;;;23.97;62.91
51031;BME280;37058;41.442;23.240;2022-08-19T00:06:52;99992.72;;;23.94;63.02
51031;BME280;37058;41.442;23.240;2022-08-19T00:09:20;99991.34;;;23.88;63.28
51031;BME280;37058;41.442;23.240;2022-08-19T00:11:47;99992.06;;;23.85;63.65
51031;BME280;37058;41.442;23.240;2022-08-19T00:14:16;99992.41;;;23.84;63.61
51031;BME280;37058;41.442;23.240;2022-08-19T00:16:45;99989.06;;;23.78;63.82
51031;BME280;37058;41.442;23.240;2022-08-19T00:19:11;99983.81;;;23.64;64.19
51031;BME280;37058;41.442;23.240;2022-08-19T00:21:38;99986.50;;;23.61;64.57
51031;BME280;37058;41.442;23.240;2022-08-19T00:24:10;99984.44;;;23.57;65.64
51031;BME280;37058;41.442;23.240;2022-08-19T00:26:37;99991.13;;;23.56;66.30
51031;BME280;37058;41.442;23.240;2022-08-19T00:29:07;99988.25;;;23.53;66.47
51031;BME280;37058;41.442;23.240;2022-08-19T00:31:33;99991.63;;;23.46;66.54
51031;BME280;37058;41.442;23.240;2022-08-19T00:33:59;99982.69;;;23.53;65.82
51031;BME280;37058;41.442;23.240;2022-08-19T00:36:25;99986.75;;;23.55;65.38
51031;BME280;37058;41.442;23.240;2022-08-19T00:38:51;99984.19;;;23.50;64.98
51031;BME280;37058;41.442;23.240;2022-08-19T00:41:20;99979.56;;;23.42;65.32
51031;BME280;37058;41.442;23.240;2022-08-19T00:46:29;99981.19;;;23.31;65.40
51031;BME280;37058;41.442;23.240;2022-08-19T00:48:56;99985.47;;;23.28;66.19
51031;BME280;37058;41.442;23.240;2022-08-19T00:51:28;99993.50;;;23.18;67.14
51031;BME280;37058;41.442;23.240;2022-08-19T00:53:57;99981.31;;;23.10;67.58
51031;BME280;37058;41.442;23.240;2022-08-19T00:56:24;99990.34;;;23.19;66.79
51031;BME280;37058;41.442;23.240;2022-08-19T00:58:55;99997.91;;;23.19;67.02
51031;BME280;37058;41.442;23.240;2022-08-19T01:01:21;100005.34;;;23.14;67.18
51031;BME280;37058;41.442;23.240;2022-08-19T01:03:47;100008.78;;;23.11;67.10
51031;BME280;37058;41.442;23.240;2022-08-19T01:06:13;100002.66;;;23.06;68.15
51031;BME280;37058;41.442;23.240;2022-08-19T01:08:40;99991.13;;;22.95;68.49
51031;BME280;37058;41.442;23.240;2022-08-19T01:11:07;99976.47;;;22.86;68.90
51031;BME280;37058;41.442;23.240;2022-08-19T01:13:33;99965.47;;;22.77;69.30
51031;BME280;37058;41.442;23.240;2022-08-19T01:16:10;99966.44;;;22.48;69.37
51031;BME280;37058;41.442;23.240;2022-08-19T01:18:40;99975.72;;;22.52;69.25
51031;BME280;37058;41.442;23.240;2022-08-19T01:21:26;99987.66;;;22.53;69.10
51031;BME280;37058;41.442;23.240;2022-08-19T01:23:54;99996.59;;;22.46;69.25
51031;BME280;37058;41.442;23.240;2022-08-19T01:26:23;99984.03;;;22.40;69.59
51031;BME280;37058;41.442;23.240;2022-08-19T01:28:55;99980.13;;;22.41;68.84
51031;BME280;37058;41.442;23.240;2022-08-19T01:31:25;99983.00;;;22.44;69.15
51031;BME280;37058;41.442;23.240;2022-08-19T01:33:54;99990.19;;;22.45;68.94
51031;BME280;37058;41.442;23.240;2022-08-19T01:36:36;99991.56;;;22.39;69.49
51031;BME280;37058;41.442;23.240;2022-08-19T01:39:07;99989.94;;;22.38;69.36
51031;BME280;37058;41.442;23.240;2022-08-19T01:41:34;99979.84;;;22.34;69.52
51031;BME280;37058;41.442;23.240;2022-08-19T01:44:00;99982.38;;;22.26;69.97
51031;BME280;37058;41.442;23.240;2022-08-19T01:46:30;99988.75;;;22.06;70.61
51031;BME280;37058;41.442;23.240;2022-08-19T01:48:56;99989.63;;;21.77;72.06
51031;BME280;37058;41.442;23.240;2022-08-19T01:51:22;99985.22;;;21.76;72.22
51031;BME280;37058;41.442;23.240;2022-08-19T01:53:50;99988.00;;;21.76;72.14
51031;BME280;37058;41.442;23.240;2022-08-19T01:56:17;99992.94;;;21.70;72.80
51031;BME280;37058;41.442;23.240;2022-08-19T01:59:00;99996.66;;;21.74;72.39
51031;BME280;37058;41.442;23.240;2022-08-19T02:01:27;100001.75;;;21.72;72.72
51031;BME280;37058;41.442;23.240;2022-08-19T02:03:58;100010.16;;;21.63;72.90
51031;BME280;37058;41.442;23.240;2022-08-19T02:06:25;100001.31;;;21.61;72.77
51031;BME280;37058;41.442;23.240;2022-08-19T02:08:51;100001.03;;;21.54;72.88
51031;BME280;37058;41.442;23.240;2022-08-19T02:11:30;100004.66;;;21.55;72.77
51031;BME280;37058;41.442;23.240;2022-08-19T02:14:03;100009.53;;;21.58;72.28
51031;BME280;37058;41.442;23.240;2022-08-19T02:16:29;99998.91;;;21.60;72.39
51031;BME280;37058;41.442;23.240;2022-08-19T02:18:56;100004.47;;;21.60;72.50
51031;BME280;37058;41.442;23.240;2022-08-19T02:21:23;100008.66;;;21.66;72.72
51031;BME280;37058;41.442;23.240;2022-08-19T02:23:50;100011.72;;;21.73;72.53
51031;BME280;37058;41.442;23.240;2022-08-19T02:26:17;100021.19;;;21.72;71.98
51031;BME280;37058;41.442;23.240;2022-08-19T02:28:43;100013.53;;;21.69;71.59
51031;BME280;37058;41.442;23.240;2022-08-19T02:31:15;100030.28;;;21.60;71.30
51031;BME280;37058;41.442;23.240;2022-08-19T02:33:44;100025.53;;;21.61;71.36
51031;BME280;37058;41.442;23.240;2022-08-19T02:36:11;100017.31;;;21.64;71.31
51031;BME280;37058;41.442;23.240;2022-08-19T02:38:39;100016.03;;;21.62;71.27
51031;BME280;37058;41.442;23.240;2022-08-19T02:41:15;100010.97;;;21.64;71.31
51031;BME280;37058;41.442;23.240;2022-08-19T02:43:42;100008.53;;;21.62;71.22
51031;BME280;37058;41.442;23.240;2022-08-19T02:46:24;100007.91;;;21.57;70.90
51031;BME280;37058;41.442;23.240;2022-08-19T02:48:55;100006.00;;;21.49;70.87
51031;BME280;37058;41.442;23.240;2022-08-19T02:51:24;100010.13;;;21.42;71.00
51031;BME280;37058;41.442;23.240;2022-08-19T02:53:50;100014.38;;;21.31;71.43
51031;BME280;37058;41.442;23.240;2022-08-19T02:56:17;100002.34;;;21.27;71.87
51031;BME280;37058;41.442;23.240;2022-08-19T02:58:43;100003.13;;;21.28;71.97
51031;BME280;37058;41.442;23.240;2022-08-19T03:01:10;100007.88;;;21.27;72.20
51031;BME280;37058;41.442;23.240;2022-08-19T03:03:37;100010.66;;;21.27;72.22
51031;BME280;37058;41.442;23.240;2022-08-19T03:06:10;100017.06;;;21.19;72.39
51031;BME280;37058;41.442;23.240;2022-08-19T03:08:39;100015.13;;;21.11;72.73
51031;BME280;37058;41.442;23.240;2022-08-19T03:11:06;100012.06;;;21.04;73.16
51031;BME280;37058;41.442;23.240;2022-08-19T03:13:37;100015.38;;;20.97;73.39
51031;BME280;37058;41.442;23.240;2022-08-19T03:16:05;100026.47;;;20.97;73.36
51031;BME280;37058;41.442;23.240;2022-08-19T03:18:31;100016.84;;;20.94;73.31
51031;BME280;37058;41.442;23.240;2022-08-19T03:20:57;100012.78;;;20.92;73.28
51031;BME280;37058;41.442;23.240;2022-08-19T03:23:23;100024.06;;;20.87;73.85
51031;BME280;37058;41.442;23.240;2022-08-19T03:25:51;100027.47;;;20.84;73.66
51031;BME280;37058;41.442;23.240;2022-08-19T03:28:18;100035.63;;;20.89;73.68
51031;BME280;37058;41.442;23.240;2022-08-19T03:30:57;100023.03;;;20.91;73.75
51031;BME280;37058;41.442;23.240;2022-08-19T03:33:25;100030.41;;;20.87;73.95
51031;BME280;37058;41.442;23.240;2022-08-19T03:36:09;100033.19;;;20.87;73.94
51031;BME280;37058;41.442;23.240;2022-08-19T03:38:47;100039.69;;;20.91;73.91
51031;BME280;37058;41.442;23.240;2022-08-19T03:41:38;100046.06;;;20.92;74.15
51031;BME280;37058;41.442;23.240;2022-08-19T03:44:04;100037.25;;;20.90;74.04
51031;BME280;37058;41.442;23.240;2022-08-19T03:46:32;100046.91;;;20.84;74.30
51031;BME280;37058;41.442;23.240;2022-08-19T03:49:01;100047.41;;;20.77;74.92
51031;BME280;37058;41.442;23.240;2022-08-19T03:51:33;100052.44;;;20.84;74.73
51031;BME280;37058;41.442;23.240;2022-08-19T03:54:05;100053.56;;;20.91;74.37
51031;BME280;37058;41.442;23.240;2022-08-19T03:56:32;100055.69;;;20.94;74.12
51031;BME280;37058;41.442;23.240;2022-08-19T03:58:59;100062.22;;;20.98;74.11
51031;BME280;37058;41.442;23.240;2022-08-19T04:01:28;100066.63;;;20.99;74.11
51031;BME280;37058;41.442;23.240;2022-08-19T04:03:56;100065.47;;;21.00;74.03
51031;BME280;37058;41.442;23.240;2022-08-19T04:06:31;100078.22;;;21.02;73.85
51031;BME280;37058;41.442;23.240;2022-08-19T04:09:00;100071.84;;;21.01;73.83
51031;BME280;37058;41.442;23.240;2022-08-19T04:11:31;100073.13;;;21.04;73.73
51031;BME280;37058;41.442;23.240;2022-08-19T04:14:00;100075.28;;;21.07;73.54
51031;BME280;37058;41.442;23.240;2022-08-19T04:16:27;100070.66;;;21.11;73.58
51031;BME280;37058;41.442;23.240;2022-08-19T04:18:59;100071.47;;;21.11;73.41
51031;BME280;37058;41.442;23.240;2022-08-19T04:21:28;100086.47;;;21.19;73.59
51031;BME280;37058;41.442;23.240;2022-08-19T04:23:56;100086.84;;;21.09;73.45
51031;BME280;37058;41.442;23.240;2022-08-19T04:26:29;100088.78;;;21.17;73.45
51031;BME280;37058;41.442;23.240;2022-08-19T04:29:03;100091.56;;;21.08;74.04
51031;BME280;37058;41.442;23.240;2022-08-19T04:31:31;100094.22;;;21.05;74.38
51031;BME280;37058;41.442;23.240;2022-08-19T04:34:04;100094.22;;;21.05;74.35
51031;BME280;37058;41.442;23.240;2022-08-19T04:36:34;100096.13;;;21.13;74.12
51031;BME280;37058;41.442;23.240;2022-08-19T04:39:07;100098.38;;;21.28;73.30
51031;BME280;37058;41.442;23.240;2022-08-19T04:41:34;100089.06;;;21.33;72.81
51031;BME280;37058;41.442;23.240;2022-08-19T04:44:19;100090.19;;;21.40;72.55
51031;BME280;37058;41.442;23.240;2022-08-19T04:46:47;100092.91;;;21.49;72.30
51031;BME280;37058;41.442;23.240;2022-08-19T04:49:15;100090.63;;;21.51;72.23
51031;BME280;37058;41.442;23.240;2022-08-19T04:51:45;100099.00;;;21.72;71.63
51031;BME280;37058;41.442;23.240;2022-08-19T04:54:15;100104.28;;;21.95;70.86
51031;BME280;37058;41.442;23.240;2022-08-19T04:56:41;100098.09;;;22.19;69.34
51031;BME280;37058;41.442;23.240;2022-08-19T04:59:07;100097.97;;;22.36;68.78
51031;BME280;37058;41.442;23.240;2022-08-19T05:01:34;100102.56;;;22.53;69.47
51031;BME280;37058;41.442;23.240;2022-08-19T05:04:04;100096.59;;;22.63;70.30
51031;BME280;37058;41.442;23.240;2022-08-19T05:06:32;100096.16;;;22.73;70.08
51031;BME280;37058;41.442;23.240;2022-08-19T05:09:04;100106.69;;;22.89;70.01
51031;BME280;37058;41.442;23.240;2022-08-19T05:11:37;100104.31;;;23.00;69.67
51031;BME280;37058;41.442;23.240;2022-08-19T05:14:06;100110.50;;;23.18;68.93
51031;BME280;37058;41.442;23.240;2022-08-19T05:16:32;100113.63;;;23.28;68.41
51031;BME280;37058;41.442;23.240;2022-08-19T05:18:58;100114.00;;;23.51;67.52
51031;BME280;37058;41.442;23.240;2022-08-19T05:21:43;100112.28;;;23.71;67.31
51031;BME280;37058;41.442;23.240;2022-08-19T05:24:29;100121.00;;;24.07;64.62
51031;BME280;37058;41.442;23.240;2022-08-19T05:26:56;100118.50;;;24.42;62.88
51031;BME280;37058;41.442;23.240;2022-08-19T05:29:26;100117.81;;;24.73;60.57
51031;BME280;37058;41.442;23.240;2022-08-19T05:31:54;100111.84;;;25.03;58.99
51031;BME280;37058;41.442;23.240;2022-08-19T05:34:23;100124.09;;;25.58;56.19
51031;BME280;37058;41.442;23.240;2022-08-19T05:36:54;100123.38;;;25.93;55.21
51031;BME280;37058;41.442;23.240;2022-08-19T05:39:27;100125.25;;;26.05;55.09
51031;BME280;37058;41.442;23.240;2022-08-19T05:42:04;100120.63;;;26.12;54.46
51031;BME280;37058;41.442;23.240;2022-08-19T05:44:37;100119.69;;;26.24;53.80
51031;BME280;37058;41.442;23.240;2022-08-19T05:47:06;100125.81;;;26.30;54.50
51031;BME280;37058;41.442;23.240;2022-08-19T05:49:35;100126.78;;;26.37;54.71
51031;BME280;37058;41.442;23.240;2022-08-19T05:52:08;100126.13;;;26.44;55.09
51031;BME280;37058;41.442;23.240;2022-08-19T05:54:39;100119.69;;;26.59;54.43
51031;BME280;37058;41.442;23.240;2022-08-19T05:57:08;100121.91;;;26.70;53.84
51031;BME280;37058;41.442;23.240;2022-08-19T05:59:34;100123.34;;;26.83;53.74
51031;BME280;37058;41.442;23.240;2022-08-19T06:02:02;100125.75;;;27.04;52.85
51031;BME280;37058;41.442;23.240;2022-08-19T06:04:28;100118.72;;;27.56;51.47
51031;BME280;37058;41.442;23.240;2022-08-19T06:06:54;100112.38;;;28.13;49.88
51031;BME280;37058;41.442;23.240;2022-08-19T06:09:22;100112.19;;;28.55;49.63
51031;BME280;37058;41.442;23.240;2022-08-19T06:11:58;100118.94;;;29.14;47.97
51031;BME280;37058;41.442;23.240;2022-08-19T06:14:32;100119.63;;;29.45;46.61
51031;BME280;37058;41.442;23.240;2022-08-19T06:17:00;100123.25;;;29.97;45.57
51031;BME280;37058;41.442;23.240;2022-08-19T06:19:29;100116.59;;;31.18;40.38
51031;BME280;37058;41.442;23.240;2022-08-19T06:21:57;100108.13;;;32.19;38.52
51031;BME280;37058;41.442;23.240;2022-08-19T06:24:27;100110.41;;;33.37;35.67
51031;BME280;37058;41.442;23.240;2022-08-19T06:26:56;100113.09;;;34.76;32.99
51031;BME280;37058;41.442;23.240;2022-08-19T06:29:25;100110.19;;;36.31;30.16
51031;BME280;37058;41.442;23.240;2022-08-19T06:31:55;100110.16;;;37.60;28.95
51031;BME280;37058;41.442;23.240;2022-08-19T06:34:22;100101.41;;;38.00;28.31
51031;BME280;37058;41.442;23.240;2022-08-19T06:36:51;100107.22;;;39.35;25.59
51031;BME280;37058;41.442;23.240;2022-08-19T06:39:25;100105.09;;;40.53;24.41
51031;BME280;37058;41.442;23.240;2022-08-19T06:41:55;100109.13;;;41.58;22.81
51031;BME280;37058;41.442;23.240;2022-08-19T06:44:23;100107.13;;;42.42;22.28
51031;BME280;37058;41.442;23.240;2022-08-19T06:46:49;100108.56;;;43.07;20.51
51031;BME280;37058;41.442;23.240;2022-08-19T06:49:17;100104.03;;;43.58;20.45
51031;BME280;37058;41.442;23.240;2022-08-19T06:51:48;100103.88;;;43.77;20.06
51031;BME280;37058;41.442;23.240;2022-08-19T06:54:18;100101.44;;;41.46;22.50
51031;BME280;37058;41.442;23.240;2022-08-19T06:56:44;100102.66;;;39.85;23.70
51031;BME280;37058;41.442;23.240;2022-08-19T06:59:17;100094.94;;;38.96;26.20
51031;BME280;37058;41.442;23.240;2022-08-19T07:01:48;100091.34;;;38.25;26.71
51031;BME280;37058;41.442;23.240;2022-08-19T07:04:18;100089.22;;;37.18;28.03
51031;BME280;37058;41.442;23.240;2022-08-19T07:06:44;100080.41;;;36.16;28.70
51031;BME280;37058;41.442;23.240;2022-08-19T07:09:15;100084.81;;;35.50;30.61
51031;BME280;37058;41.442;23.240;2022-08-19T07:11:50;100088.38;;;35.03;30.20
51031;BME280;37058;41.442;23.240;2022-08-19T07:14:21;100084.81;;;34.68;31.12
51031;BME280;37058;41.442;23.240;2022-08-19T07:16:49;100089.25;;;34.39;31.94
51031;BME280;37058;41.442;23.240;2022-08-19T07:19:19;100086.63;;;34.17;31.58
51031;BME280;37058;41.442;23.240;2022-08-19T07:21:49;100093.34;;;33.93;32.37
51031;BME280;37058;41.442;23.240;2022-08-19T07:24:17;100087.00;;;33.78;33.10
51031;BME280;37058;41.442;23.240;2022-08-19T07:26:44;100094.47;;;33.61;33.89
51031;BME280;37058;41.442;23.240;2022-08-19T07:29:12;100093.38;;;33.44;35.02
51031;BME280;37058;41.442;23.240;2022-08-19T07:31:39;100091.72;;;33.46;34.60
51031;BME280;37058;41.442;23.240;2022-08-19T07:34:08;100094.66;;;33.32;34.28
51031;BME280;37058;41.442;23.240;2022-08-19T07:36:37;100096.69;;;33.35;34.15
51031;BME280;37058;41.442;23.240;2022-08-19T07:39:24;100096.00;;;33.17;35.10
51031;BME280;37058;41.442;23.240;2022-08-19T07:41:51;100091.91;;;33.21;35.36
51031;BME280;37058;41.442;23.240;2022-08-19T07:44:18;100104.06;;;33.18;35.69
51031;BME280;37058;41.442;23.240;2022-08-19T07:46:50;100091.53;;;33.19;35.18
51031;BME280;37058;41.442;23.240;2022-08-19T07:49:18;100091.97;;;33.18;35.23
51031;BME280;37058;41.442;23.240;2022-08-19T07:52:07;100093.19;;;33.13;34.97
51031;BME280;37058;41.442;23.240;2022-08-19T07:54:36;100092.75;;;33.18;34.93
51031;BME280;37058;41.442;23.240;2022-08-19T07:57:03;100083.91;;;33.09;35.07
51031;BME280;37058;41.442;23.240;2022-08-19T07:59:30;100092.41;;;33.09;35.27
51031;BME280;37058;41.442;23.240;2022-08-19T08:01:57;100094.03;;;33.07;35.10
51031;BME280;37058;41.442;23.240;2022-08-19T08:04:27;100077.84;;;33.11;34.51
51031;BME280;37058;41.442;23.240;2022-08-19T08:07:12;100085.84;;;33.23;33.97
51031;BME280;37058;41.442;23.240;2022-08-19T08:09:57;100085.34;;;33.35;33.96
51031;BME280;37058;41.442;23.240;2022-08-19T08:12:29;100076.81;;;33.39;34.42
51031;BME280;37058;41.442;23.240;2022-08-19T08:14:59;100078.06;;;33.34;34.68
51031;BME280;37058;41.442;23.240;2022-08-19T08:17:30;100082.44;;;33.46;34.45
51031;BME280;37058;41.442;23.240;2022-08-19T08:19:57;100065.78;;;33.52;34.55
51031;BME280;37058;41.442;23.240;2022-08-19T08:22:23;100069.00;;;33.57;33.18
51031;BME280;37058;41.442;23.240;2022-08-19T08:25:15;100069.00;;;33.61;33.75
51031;BME280;37058;41.442;23.240;2022-08-19T08:27:45;100060.03;;;33.66;33.23
51031;BME280;37058;41.442;23.240;2022-08-19T08:30:18;100062.44;;;33.67;33.83
51031;BME280;37058;41.442;23.240;2022-08-19T08:32:45;100050.28;;;33.71;34.26
51031;BME280;37058;41.442;23.240;2022-08-19T08:35:16;100053.88;;;33.75;33.89
51031;BME280;37058;41.442;23.240;2022-08-19T08:37:44;100051.50;;;33.73;34.31
51031;BME280;37058;41.442;23.240;2022-08-19T08:40:23;100047.75;;;33.80;32.53
51031;BME280;37058;41.442;23.240;2022-08-19T08:43:31;100045.31;;;33.82;32.25
51031;BME280;37058;41.442;23.240;2022-08-19T08:46:13;100040.44;;;33.86;34.05
51031;BME280;37058;41.442;23.240;2022-08-19T08:51:48;100032.22;;;33.95;31.25
51031;BME280;37058;41.442;23.240;2022-08-19T08:54:20;100020.88;;;33.95;31.99
51031;BME280;37058;41.442;23.240;2022-08-19T08:56:51;100015.13;;;34.02;32.15
51031;BME280;37058;41.442;23.240;2022-08-19T08:59:24;100020.34;;;34.11;31.41
51031;BME280;37058;41.442;23.240;2022-08-19T09:01:52;100012.56;;;34.19;31.76
51031;BME280;37058;41.442;23.240;2022-08-19T09:04:18;100007.59;;;34.26;30.80
51031;BME280;37058;41.442;23.240;2022-08-19T09:09:40;100003.81;;;34.37;29.04
51031;BME280;37058;41.442;23.240;2022-08-19T09:12:16;100004.03;;;34.49;29.80
51031;BME280;37058;41.442;23.240;2022-08-19T09:14:57;100002.41;;;34.52;28.70
51031;BME280;37058;41.442;23.240;2022-08-19T09:17:28;99995.81;;;34.59;28.62
51031;BME280;37058;41.442;23.240;2022-08-19T09:20:21;99994.63;;;34.60;27.76
51031;BME280;37058;41.442;23.240;2022-08-19T09:22:48;99990.16;;;34.59;28.51
51031;BME280;37058;41.442;23.240;2022-08-19T09:25:19;99983.28;;;34.60;28.26
51031;BME280;37058;41.442;23.240;2022-08-19T09:27:52;99977.13;;;34.65;28.22
51031;BME280;37058;41.442;23.240;2022-08-19T09:30:27;99978.63;;;34.73;28.83
51031;BME280;37058;41.442;23.240;2022-08-19T09:32:54;99975.28;;;34.78;28.40
51031;BME280;37058;41.442;23.240;2022-08-19T09:35:26;99971.94;;;34.87;28.08
51031;BME280;37058;41.442;23.240;2022-08-19T09:37:55;99966.97;;;34.91;28.28
51031;BME280;37058;41.442;23.240;2022-08-19T09:40:22;99975.50;;;34.91;27.71
51031;BME280;37058;41.442;23.240;2022-08-19T09:42:48;99960.63;;;34.83;26.38
51031;BME280;37058;41.442;23.240;2022-08-19T09:45:17;99957.78;;;34.83;28.11
51031;BME280;37058;41.442;23.240;2022-08-19T09:47:45;99956.50;;;34.88;27.48
51031;BME280;37058;41.442;23.240;2022-08-19T09:50:12;99952.75;;;34.94;27.60
51031;BME280;37058;41.442;23.240;2022-08-19T09:52:38;99949.41;;;35.00;27.49
51031;BME280;37058;41.442;23.240;2022-08-19T09:55:07;99941.81;;;34.93;27.10
51031;BME280;37058;41.442;23.240;2022-08-19T09:57:34;99934.59;;;34.88;25.49
51031;BME280;37058;41.442;23.240;2022-08-19T10:00:00;99933.72;;;34.91;26.10
51031;BME280;37058;41.442;23.240;2022-08-19T10:02:26;99925.84;;;34.79;27.36
51031;BME280;37058;41.442;23.240;2022-08-19T10:04:52;99928.31;;;34.77;27.70
51031;BME280;37058;41.442;23.240;2022-08-19T10:07:37;99914.06;;;34.81;27.12
51031;BME280;37058;41.442;23.240;2022-08-19T10:10:06;99912.09;;;34.78;27.03
51031;BME280;37058;41.442;23.240;2022-08-19T10:12:33;99906.00;;;34.79;28.24
51031;BME280;37058;41.442;23.240;2022-08-19T10:15:01;99907.47;;;34.87;28.03
51031;BME280;37058;41.442;23.240;2022-08-19T10:17:27;99902.03;;;34.96;27.91
51031;BME280;37058;41.442;23.240;2022-08-19T10:19:54;99897.03;;;35.04;28.21
51031;BME280;37058;41.442;23.240;2022-08-19T10:22:20;99896.16;;;35.11;27.89
51031;BME280;37058;41.442;23.240;2022-08-19T10:24:46;99901.69;;;35.18;27.67
51031;BME280;37058;41.442;23.240;2022-08-19T10:27:12;99891.00;;;35.26;28.13
51031;BME280;37058;41.442;23.240;2022-08-19T10:29:40;99889.63;;;35.34;27.78
51031;BME280;37058;41.442;23.240;2022-08-19T10:32:08;99883.44;;;35.39;26.96
51031;BME280;37058;41.442;23.240;2022-08-19T10:34:38;99881.41;;;35.39;27.50
51031;BME280;37058;41.442;23.240;2022-08-19T10:37:05;99884.56;;;35.45;27.47
51031;BME280;37058;41.442;23.240;2022-08-19T10:39:34;99883.16;;;35.53;27.96
51031;BME280;37058;41.442;23.240;2022-08-19T10:42:06;99882.22;;;35.60;28.04
51031;BME280;37058;41.442;23.240;2022-08-19T10:44:33;99879.75;;;35.62;27.66
51031;BME280;37058;41.442;23.240;2022-08-19T10:47:01;99872.78;;;35.67;27.37
51031;BME280;37058;41.442;23.240;2022-08-19T10:49:27;99870.66;;;35.71;27.51
51031;BME280;37058;41.442;23.240;2022-08-19T10:51:55;99864.47;;;35.76;26.90
51031;BME280;37058;41.442;23.240;2022-08-19T10:54:39;99866.84;;;35.77;26.68
51031;BME280;37058;41.442;23.240;2022-08-19T10:57:24;99858.72;;;35.79;26.94
51031;BME280;37058;41.442;23.240;2022-08-19T10:59:55;99858.28;;;35.81;27.20
51031;BME280;37058;41.442;23.240;2022-08-19T11:02:22;99852.97;;;35.83;27.31
51031;BME280;37058;41.442;23.240;2022-08-19T11:04:48;99850.41;;;35.89;26.18
51031;BME280;37058;41.442;23.240;2022-08-19T11:07:16;99848.19;;;35.96;25.19
51031;BME280;37058;41.442;23.240;2022-08-19T11:09:42;99849.00;;;35.97;26.02
51031;BME280;37058;41.442;23.240;2022-08-19T11:12:09;99845.78;;;35.95;25.75
51031;BME280;37058;41.442;23.240;2022-08-19T11:14:36;99841.63;;;35.99;25.79
51031;BME280;37058;41.442;23.240;2022-08-19T11:17:04;99835.06;;;36.02;25.12
51031;BME280;37058;41.442;23.240;2022-08-19T11:19:30;99837.00;;;36.06;25.96
51031;BME280;37058;41.442;23.240;2022-08-19T11:21:56;99833.34;;;36.09;25.77
51031;BME280;37058;41.442;23.240;2022-08-19T11:24:25;99824.28;;;36.14;26.16
51031;BME280;37058;41.442;23.240;2022-08-19T11:26:53;99830.66;;;36.18;25.58
51031;BME280;37058;41.442;23.240;2022-08-19T11:29:24;99821.59;;;36.23;26.05
51031;BME280;37058;41.442;23.240;2022-08-19T11:31:51;99814.16;;;36.29;25.96
51031;BME280;37058;41.442;23.240;2022-08-19T11:34:25;99814.44;;;36.35;25.64
51031;BME280;37058;41.442;23.240;2022-08-19T11:36:53;99819.31;;;36.34;25.21
51031;BME280;37058;41.442;23.240;2022-08-19T11:39:22;99812.75;;;36.37;25.86
51031;BME280;37058;41.442;23.240;2022-08-19T11:41:48;99802.88;;;36.42;26.09
51031;BME280;37058;41.442;23.240;2022-08-19T11:44:14;99794.25;;;36.45;25.86
51031;BME280;37058;41.442;23.240;2022-08-19T11:46:42;99803.13;;;36.48;25.68
51031;BME280;37058;41.442;23.240;2022-08-19T11:49:14;99795.75;;;36.50;26.12
51031;BME280;37058;41.442;23.240;2022-08-19T11:51:41;99789.16;;;36.53;26.61
51031;BME280;37058;41.442;23.240;2022-08-19T11:54:11;99785.91;;;36.55;25.71
51031;BME280;37058;41.442;23.240;2022-08-19T11:56:38;99785.91;;;36.55;25.63
51031;BME280;37058;41.442;23.240;2022-08-19T11:59:04;99773.28;;;36.56;26.00
51031;BME280;37058;41.442;23.240;2022-08-19T12:01:30;99773.66;;;36.58;26.16
51031;BME280;37058;41.442;23.240;2022-08-19T12:03:57;99768.75;;;36.58;26.51
51031;BME280;37058;41.442;23.240;2022-08-19T12:06:32;99757.38;;;36.58;26.17
51031;BME280;37058;41.442;23.240;2022-08-19T12:09:04;99755.25;;;36.62;25.76
51031;BME280;37058;41.442;23.240;2022-08-19T12:11:31;99758.44;;;36.64;25.96
51031;BME280;37058;41.442;23.240;2022-08-19T12:13:57;99749.81;;;36.68;25.50
51031;BME280;37058;41.442;23.240;2022-08-19T12:16:27;99751.44;;;36.69;25.75
51031;BME280;37058;41.442;23.240;2022-08-19T12:18:54;99742.91;;;36.69;25.19
51031;BME280;37058;41.442;23.240;2022-08-19T12:21:24;99740.03;;;36.69;25.74
51031;BME280;37058;41.442;23.240;2022-08-19T12:23:55;99735.59;;;36.68;26.06
51031;BME280;37058;41.442;23.240;2022-08-19T12:26:22;99732.31;;;36.70;25.63
51031;BME280;37058;41.442;23.240;2022-08-19T12:28:49;99732.19;;;36.73;25.47
51031;BME280;37058;41.442;23.240;2022-08-19T12:31:15;99722.06;;;36.72;25.98
51031;BME280;37058;41.442;23.240;2022-08-19T12:33:42;99723.78;;;36.70;25.53
51031;BME280;37058;41.442;23.240;2022-08-19T12:36:12;99720.47;;;36.71;25.90
51031;BME280;37058;41.442;23.240;2022-08-19T12:38:39;99710.34;;;36.70;25.41
51031;BME280;37058;41.442;23.240;2022-08-19T12:41:09;99710.69;;;36.72;25.47
51031;BME280;37058;41.442;23.240;2022-08-19T12:43:36;99707.75;;;36.76;25.90
51031;BME280;37058;41.442;23.240;2022-08-19T12:46:04;99702.06;;;36.76;25.75
51031;BME280;37058;41.442;23.240;2022-08-19T12:48:32;99705.38;;;36.74;26.49
51031;BME280;37058;41.442;23.240;2022-08-19T12:50:58;99700.00;;;36.76;26.35
51031;BME280;37058;41.442;23.240;2022-08-19T12:53:24;99702.53;;;36.74;25.64
51031;BME280;37058;41.442;23.240;2022-08-19T12:55:58;99683.06;;;36.73;25.96
51031;BME280;37058;41.442;23.240;2022-08-19T12:58:26;99686.13;;;36.78;26.07
51031;BME280;37058;41.442;23.240;2022-08-19T13:00:54;99688.19;;;36.78;26.67
51031;BME280;37058;41.442;23.240;2022-08-19T13:03:20;99685.13;;;36.85;26.62
51031;BME280;37058;41.442;23.240;2022-08-19T13:05:47;99689.91;;;36.88;27.18
51031;BME280;37058;41.442;23.240;2022-08-19T13:08:16;99685.03;;;36.88;26.55